sensor_id;sensor_type;location;lat;lon;timestamp;P1;durP1;ratioP1;P2;durP2;ratioP2
65533;SDS011;53640;55.838;37.184;2023-03-20T00:01:29;8.90;;;4.45;;
65533;SDS011;53640;55.838;37.184;2023-03-20T00:03:58;8.82;;;4.57;;
65533;SDS011;53640;55.838;37.184;2023-03-20T00:06:26;7.28;;;3.75;;
65533;SDS011;53640;55.838;37.184;2023-03-20T00:08:57;8.30;;;4.00;;
65533;SDS011;53640;55.838;37.184;2023-03-20T00:14:04;5.80;;;3.30;;
65533;SDS011;53640;55.838;37.184;2023-03-20T00:16:37;5.82;;;3.25;;
65533;SDS011;53640;55.838;37.184;2023-03-20T00:19:09;8.05;;;3.72;;
65533;SDS011;53640;55.838;37.184;2023-03-20T00:21:43;6.88;;;3.10;;
65533;SDS011;53640;55.838;37.184;2023-03-20T00:24:11;6.55;;;3.45;;
65533;SDS011;53640;55.838;37.184;2023-03-20T00:26:41;6.75;;;3.50;;
65533;SDS011;53640;55.838;37.184;2023-03-20T00:29:20;5.28;;;2.97;;
65533;SDS011;53640;55.838;37.184;2023-03-20T00:31:51;4.60;;;2.80;;
65533;SDS011;53640;55.838;37.184;2023-03-20T00:34:20;6.70;;;3.17;;
65533;SDS011;53640;55.838;37.184;2023-03-20T00:36:49;5.97;;;3.03;;
65533;SDS011;53640;55.838;37.184;2023-03-20T00:39:19;10.48;;;3.30;;
65533;SDS011;53640;55.838;37.184;2023-03-20T00:41:59;11.57;;;4.10;;
65533;SDS011;53640;55.838;37.184;2023-03-20T00:44:37;7.75;;;3.90;;
65533;SDS011;53640;55.838;37.184;2023-03-20T00:47:21;5.05;;;3.20;;
65533;SDS011;53640;55.838;37.184;2023-03-20T00:49:50;4.95;;;3.20;;
65533;SDS011;53640;55.838;37.184;2023-03-20T00:52:23;3.15;;;2.50;;
65533;SDS011;53640;55.838;37.184;2023-03-20T00:54:52;4.43;;;3.00;;
65533;SDS011;53640;55.838;37.184;2023-03-20T00:57:20;6.95;;;3.50;;
65533;SDS011;53640;55.838;37.184;2023-03-20T00:59:53;5.30;;;3.15;;
65533;SDS011;53640;55.838;37.184;2023-03-20T01:02:30;4.55;;;2.72;;
65533;SDS011;53640;55.838;37.184;2023-03-20T01:05:02;6.05;;;2.78;;
65533;SDS011;53640;55.838;37.184;2023-03-20T01:07:31;7.65;;;3.60;;
65533;SDS011;53640;55.838;37.184;2023-03-20T01:09:58;6.63;;;3.22;;
65533;SDS011;53640;55.838;37.184;2023-03-20T01:12:26;5.88;;;3.35;;
65533;SDS011;53640;55.838;37.184;2023-03-20T01:15:20;5.82;;;3.17;;
65533;SDS011;53640;55.838;37.184;2023-03-20T01:17:51;5.35;;;3.30;;
65533;SDS011;53640;55.838;37.184;2023-03-20T01:20:24;5.93;;;3.40;;
65533;SDS011;53640;55.838;37.184;2023-03-20T01:22:58;3.97;;;3.10;;
65533;SDS011;53640;55.838;37.184;2023-03-20T01:25:26;9.88;;;3.88;;
65533;SDS011;53640;55.838;37.184;2023-03-20T01:27:53;7.38;;;4.13;;
65533;SDS011;53640;55.838;37.184;2023-03-20T01:30:26;4.95;;;3.08;;
65533;SDS011;53640;55.838;37.184;2023-03-20T01:33:05;7.85;;;3.88;;
65533;SDS011;53640;55.838;37.184;2023-03-20T01:35:43;4.97;;;3.45;;
65533;SDS011;53640;55.838;37.184;2023-03-20T01:38:20;5.20;;;3.35;;
65533;SDS011;53640;55.838;37.184;2023-03-20T01:40:54;9.35;;;4.00;;
65533;SDS011;53640;55.838;37.184;2023-03-20T01:43:31;7.90;;;3.90;;
65533;SDS011;53640;55.838;37.184;2023-03-20T01:46:09;7.15;;;3.33;;
65533;SDS011;53640;55.838;37.184;2023-03-20T01:51:27;7.18;;;3.25;;
65533;SDS011;53640;55.838;37.184;2023-03-20T01:54:05;5.25;;;3.28;;
65533;SDS011;53640;55.838;37.184;2023-03-20T01:57:03;5.43;;;2.85;;
65533;SDS011;53640;55.838;37.184;2023-03-20T01:59:58;8.68;;;3.25;;
65533;SDS011;53640;55.838;37.184;2023-03-20T02:02:43;6.30;;;2.70;;
65533;SDS011;53640;55.838;37.184;2023-03-20T02:05:19;6.93;;;2.90;;
65533;SDS011;53640;55.838;37.184;2023-03-20T02:07:58;5.53;;;3.40;;
65533;SDS011;53640;55.838;37.184;2023-03-20T02:13:30;7.15;;;3.03;;
65533;SDS011;53640;55.838;37.184;2023-03-20T02:18:59;3.40;;;2.55;;
65533;SDS011;53640;55.838;37.184;2023-03-20T02:27:38;5.90;;;3.47;;
65533;SDS011;53640;55.838;37.184;2023-03-20T02:31:13;6.10;;;3.45;;
65533;SDS011;53640;55.838;37.184;2023-03-20T02:45:37;5.28;;;2.85;;
65533;SDS011;53640;55.838;37.184;2023-03-20T02:48:25;7.07;;;3.15;;
65533;SDS011;53640;55.838;37.184;2023-03-20T02:51:21;5.40;;;3.20;;
65533;SDS011;53640;55.838;37.184;2023-03-20T02:53:52;9.25;;;4.07;;
65533;SDS011;53640;55.838;37.184;2023-03-20T02:56:45;4.22;;;2.92;;
65533;SDS011;53640;55.838;37.184;2023-03-20T03:02:33;4.75;;;2.80;;
65533;SDS011;53640;55.838;37.184;2023-03-20T03:05:15;5.65;;;3.00;;
65533;SDS011;53640;55.838;37.184;2023-03-20T03:07:55;4.25;;;3.00;;
65533;SDS011;53640;55.838;37.184;2023-03-20T03:10:40;3.40;;;2.72;;
65533;SDS011;53640;55.838;37.184;2023-03-20T03:13:41;4.47;;;2.80;;
65533;SDS011;53640;55.838;37.184;2023-03-20T03:16:57;4.22;;;2.45;;
65533;SDS011;53640;55.838;37.184;2023-03-20T03:19:29;7.50;;;2.65;;
65533;SDS011;53640;55.838;37.184;2023-03-20T03:25:04;14.70;;;6.63;;
65533;SDS011;53640;55.838;37.184;2023-03-20T03:27:53;10.88;;;4.43;;
65533;SDS011;53640;55.838;37.184;2023-03-20T03:31:12;7.53;;;3.13;;
65533;SDS011;53640;55.838;37.184;2023-03-20T03:37:57;5.20;;;3.08;;
65533;SDS011;53640;55.838;37.184;2023-03-20T03:40:45;4.82;;;2.78;;
65533;SDS011;53640;55.838;37.184;2023-03-20T03:43:40;4.82;;;2.78;;
65533;SDS011;53640;55.838;37.184;2023-03-20T03:46:32;5.32;;;3.15;;
65533;SDS011;53640;55.838;37.184;2023-03-20T03:49:15;4.40;;;2.88;;
65533;SDS011;53640;55.838;37.184;2023-03-20T03:51:53;3.40;;;2.70;;
65533;SDS011;53640;55.838;37.184;2023-03-20T03:54:28;8.15;;;3.55;;
65533;SDS011;53640;55.838;37.184;2023-03-20T03:57:52;6.40;;;3.60;;
65533;SDS011;53640;55.838;37.184;2023-03-20T04:00:27;7.18;;;3.80;;
65533;SDS011;53640;55.838;37.184;2023-03-20T04:02:55;4.72;;;3.10;;
65533;SDS011;53640;55.838;37.184;2023-03-20T04:05:24;6.35;;;2.70;;
65533;SDS011;53640;55.838;37.184;2023-03-20T04:07:57;5.43;;;2.50;;
65533;SDS011;53640;55.838;37.184;2023-03-20T04:10:24;3.92;;;2.53;;
65533;SDS011;53640;55.838;37.184;2023-03-20T04:12:51;3.92;;;2.40;;
65533;SDS011;53640;55.838;37.184;2023-03-20T04:15:18;2.88;;;1.90;;
65533;SDS011;53640;55.838;37.184;2023-03-20T04:17:50;4.85;;;2.45;;
65533;SDS011;53640;55.838;37.184;2023-03-20T04:20:17;5.07;;;2.88;;
65533;SDS011;53640;55.838;37.184;2023-03-20T04:22:45;5.70;;;3.05;;
65533;SDS011;53640;55.838;37.184;2023-03-20T04:25:16;6.47;;;3.03;;
65533;SDS011;53640;55.838;37.184;2023-03-20T04:27:48;3.95;;;2.70;;
65533;SDS011;53640;55.838;37.184;2023-03-20T04:30:42;6.07;;;3.33;;
65533;SDS011;53640;55.838;37.184;2023-03-20T04:33:13;3.95;;;2.60;;
65533;SDS011;53640;55.838;37.184;2023-03-20T04:38:39;7.82;;;4.10;;
65533;SDS011;53640;55.838;37.184;2023-03-20T04:41:07;6.22;;;3.47;;
65533;SDS011;53640;55.838;37.184;2023-03-20T04:43:35;6.93;;;3.50;;
65533;SDS011;53640;55.838;37.184;2023-03-20T04:46:04;6.10;;;3.17;;
65533;SDS011;53640;55.838;37.184;2023-03-20T04:48:31;5.63;;;3.55;;
65533;SDS011;53640;55.838;37.184;2023-03-20T04:50:58;5.63;;;3.40;;
65533;SDS011;53640;55.838;37.184;2023-03-20T04:53:36;6.43;;;3.97;;
65533;SDS011;53640;55.838;37.184;2023-03-20T04:56:03;8.15;;;3.65;;
65533;SDS011;53640;55.838;37.184;2023-03-20T04:58:32;6.00;;;3.55;;
65533;SDS011;53640;55.838;37.184;2023-03-20T05:01:00;6.85;;;3.50;;
65533;SDS011;53640;55.838;37.184;2023-03-20T05:03:27;6.30;;;3.67;;
65533;SDS011;53640;55.838;37.184;2023-03-20T05:05:54;6.80;;;3.88;;
65533;SDS011;53640;55.838;37.184;2023-03-20T05:08:20;7.65;;;4.15;;
65533;SDS011;53640;55.838;37.184;2023-03-20T05:10:48;7.45;;;4.78;;
65533;SDS011;53640;55.838;37.184;2023-03-20T05:13:53;7.45;;;4.68;;
65533;SDS011;53640;55.838;37.184;2023-03-20T05:16:39;11.27;;;4.20;;
65533;SDS011;53640;55.838;37.184;2023-03-20T05:19:35;5.18;;;3.13;;
65533;SDS011;53640;55.838;37.184;2023-03-20T05:22:06;6.53;;;4.22;;
65533;SDS011;53640;55.838;37.184;2023-03-20T05:25:11;7.30;;;4.13;;
65533;SDS011;53640;55.838;37.184;2023-03-20T05:28:04;10.82;;;4.75;;
65533;SDS011;53640;55.838;37.184;2023-03-20T05:31:07;7.10;;;4.38;;
65533;SDS011;53640;55.838;37.184;2023-03-20T05:33:54;9.63;;;4.45;;
65533;SDS011;53640;55.838;37.184;2023-03-20T05:36:52;8.73;;;5.18;;
65533;SDS011;53640;55.838;37.184;2023-03-20T05:39:57;12.60;;;5.65;;
65533;SDS011;53640;55.838;37.184;2023-03-20T05:42:35;9.98;;;4.22;;
65533;SDS011;53640;55.838;37.184;2023-03-20T05:45:05;9.68;;;4.85;;
65533;SDS011;53640;55.838;37.184;2023-03-20T05:47:46;13.27;;;5.95;;
65533;SDS011;53640;55.838;37.184;2023-03-20T05:50:29;11.70;;;5.57;;
65533;SDS011;53640;55.838;37.184;2023-03-20T05:53:15;12.60;;;6.25;;
65533;SDS011;53640;55.838;37.184;2023-03-20T05:56:16;14.20;;;6.70;;
65533;SDS011;53640;55.838;37.184;2023-03-20T05:59:38;19.77;;;8.45;;
65533;SDS011;53640;55.838;37.184;2023-03-20T06:02:31;18.63;;;8.43;;
65533;SDS011;53640;55.838;37.184;2023-03-20T06:11:57;12.43;;;5.55;;
65533;SDS011;53640;55.838;37.184;2023-03-20T06:14:27;11.07;;;4.95;;
65533;SDS011;53640;55.838;37.184;2023-03-20T06:16:58;8.23;;;4.33;;
65533;SDS011;53640;55.838;37.184;2023-03-20T06:19:27;11.55;;;5.95;;
65533;SDS011;53640;55.838;37.184;2023-03-20T06:21:55;12.38;;;6.03;;
65533;SDS011;53640;55.838;37.184;2023-03-20T06:24:24;11.20;;;5.30;;
65533;SDS011;53640;55.838;37.184;2023-03-20T06:26:51;9.43;;;5.05;;
65533;SDS011;53640;55.838;37.184;2023-03-20T06:29:19;6.55;;;4.55;;
65533;SDS011;53640;55.838;37.184;2023-03-20T06:31:49;7.95;;;4.32;;
65533;SDS011;53640;55.838;37.184;2023-03-20T06:34:24;18.33;;;4.00;;
65533;SDS011;53640;55.838;37.184;2023-03-20T06:37:04;6.47;;;3.53;;
65533;SDS011;53640;55.838;37.184;2023-03-20T06:39:33;8.02;;;3.90;;
65533;SDS011;53640;55.838;37.184;2023-03-20T06:42:05;9.77;;;3.95;;
65533;SDS011;53640;55.838;37.184;2023-03-20T06:47:15;7.32;;;3.90;;
65533;SDS011;53640;55.838;37.184;2023-03-20T06:49:59;13.13;;;5.40;;
65533;SDS011;53640;55.838;37.184;2023-03-20T06:52:44;13.43;;;6.20;;
65533;SDS011;53640;55.838;37.184;2023-03-20T06:55:42;17.05;;;7.13;;
65533;SDS011;53640;55.838;37.184;2023-03-20T06:58:23;12.45;;;5.35;;
65533;SDS011;53640;55.838;37.184;2023-03-20T07:01:00;16.60;;;6.40;;
65533;SDS011;53640;55.838;37.184;2023-03-20T07:03:34;13.02;;;5.70;;
65533;SDS011;53640;55.838;37.184;2023-03-20T07:06:08;14.45;;;5.97;;
65533;SDS011;53640;55.838;37.184;2023-03-20T07:08:58;12.40;;;5.35;;
65533;SDS011;53640;55.838;37.184;2023-03-20T07:11:35;19.10;;;5.60;;
65533;SDS011;53640;55.838;37.184;2023-03-20T07:14:36;6.43;;;3.25;;
65533;SDS011;53640;55.838;37.184;2023-03-20T07:17:18;7.57;;;3.38;;
65533;SDS011;53640;55.838;37.184;2023-03-20T07:19:49;5.07;;;2.88;;
65533;SDS011;53640;55.838;37.184;2023-03-20T07:22:24;10.20;;;4.05;;
65533;SDS011;53640;55.838;37.184;2023-03-20T07:25:32;5.65;;;3.10;;
65533;SDS011;53640;55.838;37.184;2023-03-20T07:28:15;5.85;;;3.22;;
65533;SDS011;53640;55.838;37.184;2023-03-20T07:30:53;5.47;;;2.90;;
65533;SDS011;53640;55.838;37.184;2023-03-20T07:33:25;7.13;;;3.75;;
65533;SDS011;53640;55.838;37.184;2023-03-20T07:35:53;11.18;;;4.00;;
65533;SDS011;53640;55.838;37.184;2023-03-20T07:38:29;9.43;;;3.40;;
65533;SDS011;53640;55.838;37.184;2023-03-20T07:41:15;7.95;;;3.50;;
65533;SDS011;53640;55.838;37.184;2023-03-20T07:47:26;11.93;;;4.22;;
65533;SDS011;53640;55.838;37.184;2023-03-20T07:50:26;6.13;;;3.35;;
65533;SDS011;53640;55.838;37.184;2023-03-20T07:56:33;7.70;;;3.60;;
65533;SDS011;53640;55.838;37.184;2023-03-20T07:59:04;8.25;;;3.40;;
65533;SDS011;53640;55.838;37.184;2023-03-20T08:01:31;7.72;;;3.30;;
65533;SDS011;53640;55.838;37.184;2023-03-20T08:04:05;10.75;;;3.88;;
65533;SDS011;53640;55.838;37.184;2023-03-20T08:06:34;9.02;;;3.67;;
65533;SDS011;53640;55.838;37.184;2023-03-20T08:09:30;4.38;;;2.78;;
65533;SDS011;53640;55.838;37.184;2023-03-20T08:11:56;7.57;;;3.10;;
65533;SDS011;53640;55.838;37.184;2023-03-20T08:14:23;5.63;;;2.90;;
65533;SDS011;53640;55.838;37.184;2023-03-20T08:16:49;6.57;;;2.60;;
65533;SDS011;53640;55.838;37.184;2023-03-20T08:19:16;3.35;;;2.35;;
65533;SDS011;53640;55.838;37.184;2023-03-20T08:21:43;7.40;;;2.47;;
65533;SDS011;53640;55.838;37.184;2023-03-20T08:24:10;3.25;;;2.22;;
65533;SDS011;53640;55.838;37.184;2023-03-20T08:26:39;4.05;;;2.40;;
65533;SDS011;53640;55.838;37.184;2023-03-20T08:29:06;2.47;;;1.92;;
65533;SDS011;53640;55.838;37.184;2023-03-20T08:31:32;3.95;;;2.72;;
65533;SDS011;53640;55.838;37.184;2023-03-20T08:34:00;4.60;;;2.50;;
65533;SDS011;53640;55.838;37.184;2023-03-20T08:36:27;3.17;;;2.53;;
65533;SDS011;53640;55.838;37.184;2023-03-20T08:38:54;4.38;;;2.50;;
65533;SDS011;53640;55.838;37.184;2023-03-20T08:41:22;5.30;;;2.60;;
65533;SDS011;53640;55.838;37.184;2023-03-20T08:43:48;4.63;;;2.20;;
65533;SDS011;53640;55.838;37.184;2023-03-20T08:46:15;2.85;;;2.20;;
65533;SDS011;53640;55.838;37.184;2023-03-20T08:48:45;4.57;;;2.45;;
65533;SDS011;53640;55.838;37.184;2023-03-20T08:51:19;4.25;;;2.13;;
65533;SDS011;53640;55.838;37.184;2023-03-20T08:54:06;3.75;;;2.22;;
65533;SDS011;53640;55.838;37.184;2023-03-20T08:56:33;3.58;;;2.22;;
65533;SDS011;53640;55.838;37.184;2023-03-20T08:59:01;5.78;;;2.38;;
65533;SDS011;53640;55.838;37.184;2023-03-20T09:01:38;3.72;;;2.30;;
65533;SDS011;53640;55.838;37.184;2023-03-20T09:05:01;5.97;;;1.70;;
65533;SDS011;53640;55.838;37.184;2023-03-20T09:07:46;1.95;;;1.40;;
65533;SDS011;53640;55.838;37.184;2023-03-20T09:10:20;3.60;;;1.80;;
65533;SDS011;53640;55.838;37.184;2023-03-20T09:12:52;3.13;;;2.13;;
65533;SDS011;53640;55.838;37.184;2023-03-20T09:15:36;3.33;;;1.85;;
65533;SDS011;53640;55.838;37.184;2023-03-20T09:18:27;6.18;;;2.47;;
65533;SDS011;53640;55.838;37.184;2023-03-20T09:21:54;7.53;;;3.60;;
65533;SDS011;53640;55.838;37.184;2023-03-20T09:24:58;4.25;;;2.22;;
65533;SDS011;53640;55.838;37.184;2023-03-20T09:27:26;5.45;;;2.95;;
65533;SDS011;53640;55.838;37.184;2023-03-20T09:29:52;6.00;;;2.80;;
65533;SDS011;53640;55.838;37.184;2023-03-20T09:32:19;3.50;;;2.70;;
65533;SDS011;53640;55.838;37.184;2023-03-20T09:34:45;4.55;;;2.60;;
65533;SDS011;53640;55.838;37.184;2023-03-20T09:37:16;5.13;;;2.72;;
65533;SDS011;53640;55.838;37.184;2023-03-20T09:39:44;9.05;;;3.20;;
65533;SDS011;53640;55.838;37.184;2023-03-20T09:47:12;4.78;;;2.42;;
65533;SDS011;53640;55.838;37.184;2023-03-20T09:54:32;6.18;;;3.58;;
65533;SDS011;53640;55.838;37.184;2023-03-20T10:01:52;4.43;;;2.40;;
65533;SDS011;53640;55.838;37.184;2023-03-20T10:08:23;3.65;;;2.50;;
65533;SDS011;53640;55.838;37.184;2023-03-20T10:19:05;3.75;;;2.72;;
65533;SDS011;53640;55.838;37.184;2023-03-20T10:41:20;4.63;;;2.55;;
65533;SDS011;53640;55.838;37.184;2023-03-20T10:49:17;2.35;;;1.77;;
65533;SDS011;53640;55.838;37.184;2023-03-20T10:51:55;4.07;;;2.70;;
65533;SDS011;53640;55.838;37.184;2023-03-20T10:54:36;2.20;;;2.00;;
65533;SDS011;53640;55.838;37.184;2023-03-20T10:57:42;3.55;;;2.20;;
65533;SDS011;53640;55.838;37.184;2023-03-20T11:00:03;3.97;;;2.20;;
65533;SDS011;53640;55.838;37.184;2023-03-20T11:10:14;4.00;;;2.38;;
65533;SDS011;53640;55.838;37.184;2023-03-20T11:12:43;2.42;;;2.10;;
65533;SDS011;53640;55.838;37.184;2023-03-20T11:18:10;2.63;;;2.25;;
65533;SDS011;53640;55.838;37.184;2023-03-20T11:20:47;2.55;;;2.17;;
65533;SDS011;53640;55.838;37.184;2023-03-20T11:23:23;2.40;;;2.00;;
65533;SDS011;53640;55.838;37.184;2023-03-20T11:25:58;3.20;;;1.65;;
65533;SDS011;53640;55.838;37.184;2023-03-20T11:28:40;2.65;;;1.95;;
65533;SDS011;53640;55.838;37.184;2023-03-20T11:33:44;10.18;;;2.63;;
65533;SDS011;53640;55.838;37.184;2023-03-20T11:36:27;2.00;;;1.80;;
65533;SDS011;53640;55.838;37.184;2023-03-20T11:39:05;2.83;;;2.20;;
65533;SDS011;53640;55.838;37.184;2023-03-20T11:41:51;2.38;;;2.08;;
65533;SDS011;53640;55.838;37.184;2023-03-20T11:47:01;2.28;;;2.08;;
65533;SDS011;53640;55.838;37.184;2023-03-20T11:49:48;2.33;;;1.77;;
65533;SDS011;53640;55.838;37.184;2023-03-20T11:52:23;2.55;;;2.28;;
65533;SDS011;53640;55.838;37.184;2023-03-20T11:55:06;3.25;;;2.17;;
65533;SDS011;53640;55.838;37.184;2023-03-20T12:05:58;2.22;;;1.80;;
65533;SDS011;53640;55.838;37.184;2023-03-20T12:08:30;3.15;;;2.85;;
65533;SDS011;53640;55.838;37.184;2023-03-20T12:11:04;7.63;;;4.93;;
65533;SDS011;53640;55.838;37.184;2023-03-20T12:13:41;4.43;;;2.63;;
65533;SDS011;53640;55.838;37.184;2023-03-20T12:16:10;8.27;;;1.90;;
65533;SDS011;53640;55.838;37.184;2023-03-20T12:18:42;2.30;;;1.60;;
65533;SDS011;53640;55.838;37.184;2023-03-20T12:21:34;1.83;;;1.65;;
65533;SDS011;53640;55.838;37.184;2023-03-20T12:24:18;2.80;;;1.65;;
65533;SDS011;53640;55.838;37.184;2023-03-20T12:27:32;3.97;;;1.90;;
65533;SDS011;53640;55.838;37.184;2023-03-20T12:30:13;2.90;;;1.75;;
65533;SDS011;53640;55.838;37.184;2023-03-20T12:32:47;2.88;;;2.00;;
65533;SDS011;53640;55.838;37.184;2023-03-20T12:35:25;6.28;;;1.90;;
65533;SDS011;53640;55.838;37.184;2023-03-20T12:37:55;2.38;;;1.77;;
65533;SDS011;53640;55.838;37.184;2023-03-20T12:40:41;2.83;;;2.10;;
65533;SDS011;53640;55.838;37.184;2023-03-20T12:43:21;4.07;;;2.10;;
65533;SDS011;53640;55.838;37.184;2023-03-20T12:49:03;3.53;;;2.20;;
65533;SDS011;53640;55.838;37.184;2023-03-20T12:51:36;3.92;;;2.30;;
65533;SDS011;53640;55.838;37.184;2023-03-20T13:04:00;3.33;;;2.10;;
65533;SDS011;53640;55.838;37.184;2023-03-20T13:12:23;3.47;;;2.17;;
65533;SDS011;53640;55.838;37.184;2023-03-20T13:20:25;4.15;;;2.60;;
65533;SDS011;53640;55.838;37.184;2023-03-20T13:26:53;3.45;;;2.60;;
65533;SDS011;53640;55.838;37.184;2023-03-20T13:29:27;6.75;;;2.40;;
65533;SDS011;53640;55.838;37.184;2023-03-20T13:32:15;2.15;;;1.95;;
65533;SDS011;53640;55.838;37.184;2023-03-20T13:37:45;7.88;;;3.00;;
65533;SDS011;53640;55.838;37.184;2023-03-20T13:45:37;4.50;;;2.83;;
65533;SDS011;53640;55.838;37.184;2023-03-20T13:50:59;6.68;;;2.58;;
65533;SDS011;53640;55.838;37.184;2023-03-20T14:04:46;5.07;;;2.55;;
65533;SDS011;53640;55.838;37.184;2023-03-20T14:07:34;5.78;;;2.30;;
65533;SDS011;53640;55.838;37.184;2023-03-20T14:12:47;3.58;;;2.58;;
65533;SDS011;53640;55.838;37.184;2023-03-20T14:15:17;6.10;;;2.50;;
65533;SDS011;53640;55.838;37.184;2023-03-20T14:17:45;4.93;;;2.92;;
65533;SDS011;53640;55.838;37.184;2023-03-20T14:20:22;3.55;;;2.30;;
65533;SDS011;53640;55.838;37.184;2023-03-20T14:22:53;6.97;;;2.60;;
65533;SDS011;53640;55.838;37.184;2023-03-20T14:25:23;6.00;;;3.00;;
65533;SDS011;53640;55.838;37.184;2023-03-20T14:27:53;5.68;;;2.70;;
65533;SDS011;53640;55.838;37.184;2023-03-20T14:32:58;4.65;;;3.05;;
65533;SDS011;53640;55.838;37.184;2023-03-20T14:50:04;3.38;;;2.60;;
65533;SDS011;53640;55.838;37.184;2023-03-20T14:58:48;8.68;;;2.67;;
65533;SDS011;53640;55.838;37.184;2023-03-20T15:02:27;5.18;;;2.75;;
65533;SDS011;53640;55.838;37.184;2023-03-20T15:05:03;7.22;;;4.07;;
65533;SDS011;53640;55.838;37.184;2023-03-20T15:10:52;10.80;;;4.07;;
65533;SDS011;53640;55.838;37.184;2023-03-20T15:13:21;10.40;;;4.15;;
65533;SDS011;53640;55.838;37.184;2023-03-20T15:15:56;4.22;;;3.30;;
65533;SDS011;53640;55.838;37.184;2023-03-20T15:18:29;7.07;;;3.47;;
65533;SDS011;53640;55.838;37.184;2023-03-20T15:20:56;5.95;;;3.08;;
65533;SDS011;53640;55.838;37.184;2023-03-20T15:23:23;5.30;;;2.90;;
65533;SDS011;53640;55.838;37.184;2023-03-20T15:25:51;12.30;;;3.75;;
65533;SDS011;53640;55.838;37.184;2023-03-20T15:28:19;10.10;;;6.93;;
65533;SDS011;53640;55.838;37.184;2023-03-20T15:30:51;6.68;;;4.80;;
65533;SDS011;53640;55.838;37.184;2023-03-20T15:33:23;5.68;;;4.03;;
65533;SDS011;53640;55.838;37.184;2023-03-20T15:35:55;5.95;;;3.47;;
65533;SDS011;53640;55.838;37.184;2023-03-20T15:38:25;8.65;;;3.78;;
65533;SDS011;53640;55.838;37.184;2023-03-20T15:40:57;4.57;;;3.55;;
65533;SDS011;53640;55.838;37.184;2023-03-20T15:43:25;5.53;;;2.70;;
65533;SDS011;53640;55.838;37.184;2023-03-20T15:45:53;10.43;;;4.43;;
65533;SDS011;53640;55.838;37.184;2023-03-20T15:48:24;11.83;;;5.87;;
65533;SDS011;53640;55.838;37.184;2023-03-20T15:50:53;8.27;;;4.10;;
65533;SDS011;53640;55.838;37.184;2023-03-20T15:53:28;4.30;;;2.88;;
65533;SDS011;53640;55.838;37.184;2023-03-20T15:56:25;5.55;;;3.53;;
65533;SDS011;53640;55.838;37.184;2023-03-20T15:58:52;8.05;;;3.40;;
65533;SDS011;53640;55.838;37.184;2023-03-20T16:01:23;3.50;;;2.22;;
65533;SDS011;53640;55.838;37.184;2023-03-20T16:03:51;3.85;;;2.60;;
65533;SDS011;53640;55.838;37.184;2023-03-20T16:08:58;3.33;;;2.35;;
65533;SDS011;53640;55.838;37.184;2023-03-20T16:11:35;2.55;;;1.85;;
65533;SDS011;53640;55.838;37.184;2023-03-20T16:14:04;3.97;;;2.20;;
65533;SDS011;53640;55.838;37.184;2023-03-20T16:16:32;2.53;;;2.15;;
65533;SDS011;53640;55.838;37.184;2023-03-20T16:19:05;3.90;;;2.25;;
65533;SDS011;53640;55.838;37.184;2023-03-20T16:21:34;6.10;;;2.53;;
65533;SDS011;53640;55.838;37.184;2023-03-20T16:24:08;6.25;;;2.60;;
65533;SDS011;53640;55.838;37.184;2023-03-20T16:26:42;6.82;;;2.80;;
65533;SDS011;53640;55.838;37.184;2023-03-20T16:29:12;2.60;;;1.98;;
65533;SDS011;53640;55.838;37.184;2023-03-20T16:31:52;6.82;;;2.72;;
65533;SDS011;53640;55.838;37.184;2023-03-20T16:34:30;4.30;;;2.40;;
65533;SDS011;53640;55.838;37.184;2023-03-20T16:37:00;6.45;;;2.47;;
65533;SDS011;53640;55.838;37.184;2023-03-20T16:39:31;5.35;;;3.20;;
65533;SDS011;53640;55.838;37.184;2023-03-20T16:42:07;5.03;;;2.88;;
65533;SDS011;53640;55.838;37.184;2023-03-20T16:45:04;7.40;;;3.17;;
65533;SDS011;53640;55.838;37.184;2023-03-20T16:47:34;4.80;;;3.00;;
65533;SDS011;53640;55.838;37.184;2023-03-20T16:50:11;8.30;;;2.83;;
65533;SDS011;53640;55.838;37.184;2023-03-20T16:52:47;6.45;;;3.10;;
65533;SDS011;53640;55.838;37.184;2023-03-20T16:55:20;5.07;;;3.05;;
65533;SDS011;53640;55.838;37.184;2023-03-20T16:58:03;6.05;;;3.17;;
65533;SDS011;53640;55.838;37.184;2023-03-20T17:00:40;3.67;;;2.85;;
65533;SDS011;53640;55.838;37.184;2023-03-20T17:03:12;4.82;;;2.67;;
65533;SDS011;53640;55.838;37.184;2023-03-20T17:08:38;3.50;;;2.03;;
65533;SDS011;53640;55.838;37.184;2023-03-20T17:11:09;2.72;;;2.00;;
65533;SDS011;53640;55.838;37.184;2023-03-20T17:13:38;4.35;;;2.53;;
65533;SDS011;53640;55.838;37.184;2023-03-20T17:16:14;4.20;;;2.90;;
65533;SDS011;53640;55.838;37.184;2023-03-20T17:18:44;2.92;;;2.22;;
65533;SDS011;53640;55.838;37.184;2023-03-20T17:21:12;6.28;;;2.80;;
65533;SDS011;53640;55.838;37.184;2023-03-20T17:23:39;3.90;;;2.38;;
65533;SDS011;53640;55.838;37.184;2023-03-20T17:26:15;4.28;;;2.47;;
65533;SDS011;53640;55.838;37.184;2023-03-20T17:28:42;4.88;;;2.72;;
65533;SDS011;53640;55.838;37.184;2023-03-20T17:31:12;6.22;;;2.85;;
65533;SDS011;53640;55.838;37.184;2023-03-20T17:33:41;12.13;;;2.83;;
65533;SDS011;53640;55.838;37.184;2023-03-20T17:36:29;3.70;;;2.40;;
65533;SDS011;53640;55.838;37.184;2023-03-20T17:38:58;6.85;;;3.05;;
65533;SDS011;53640;55.838;37.184;2023-03-20T17:41:26;6.00;;;3.15;;
65533;SDS011;53640;55.838;37.184;2023-03-20T17:43:53;10.23;;;3.38;;
65533;SDS011;53640;55.838;37.184;2023-03-20T17:46:29;5.47;;;2.70;;
65533;SDS011;53640;55.838;37.184;2023-03-20T17:48:57;5.65;;;3.20;;
65533;SDS011;53640;55.838;37.184;2023-03-20T17:54:57;4.40;;;2.83;;
65533;SDS011;53640;55.838;37.184;2023-03-20T17:57:33;6.28;;;3.03;;
65533;SDS011;53640;55.838;37.184;2023-03-20T18:00:05;4.97;;;2.70;;
65533;SDS011;53640;55.838;37.184;2023-03-20T18:05:01;5.78;;;2.67;;
65533;SDS011;53640;55.838;37.184;2023-03-20T18:07:33;3.92;;;2.70;;
65533;SDS011;53640;55.838;37.184;2023-03-20T18:12:41;8.38;;;2.80;;
65533;SDS011;53640;55.838;37.184;2023-03-20T18:15:13;3.75;;;2.40;;
65533;SDS011;53640;55.838;37.184;2023-03-20T18:17:41;5.22;;;2.45;;
65533;SDS011;53640;55.838;37.184;2023-03-20T18:30:31;6.50;;;2.58;;
65533;SDS011;53640;55.838;37.184;2023-03-20T18:33:23;4.55;;;2.55;;
65533;SDS011;53640;55.838;37.184;2023-03-20T18:39:31;6.20;;;3.08;;
65533;SDS011;53640;55.838;37.184;2023-03-20T18:43:13;5.85;;;2.50;;
65533;SDS011;53640;55.838;37.184;2023-03-20T18:45:55;6.57;;;2.80;;
65533;SDS011;53640;55.838;37.184;2023-03-20T18:48:54;3.13;;;2.08;;
65533;SDS011;53640;55.838;37.184;2023-03-20T18:51:48;6.78;;;2.65;;
65533;SDS011;53640;55.838;37.184;2023-03-20T18:54:47;3.78;;;2.10;;
65533;SDS011;53640;55.838;37.184;2023-03-20T18:57:19;4.15;;;2.60;;
65533;SDS011;53640;55.838;37.184;2023-03-20T19:00:00;4.97;;;2.63;;
65533;SDS011;53640;55.838;37.184;2023-03-20T19:02:51;3.83;;;2.33;;
65533;SDS011;53640;55.838;37.184;2023-03-20T19:05:28;4.22;;;2.60;;
65533;SDS011;53640;55.838;37.184;2023-03-20T19:08:22;3.40;;;2.28;;
65533;SDS011;53640;55.838;37.184;2023-03-20T19:11:31;6.90;;;2.22;;
65533;SDS011;53640;55.838;37.184;2023-03-20T19:18:10;5.70;;;2.08;;
65533;SDS011;53640;55.838;37.184;2023-03-20T19:20:41;3.00;;;2.22;;
65533;SDS011;53640;55.838;37.184;2023-03-20T19:23:14;3.53;;;2.38;;
65533;SDS011;53640;55.838;37.184;2023-03-20T19:25:43;2.38;;;2.00;;
65533;SDS011;53640;55.838;37.184;2023-03-20T19:28:21;2.97;;;2.08;;
65533;SDS011;53640;55.838;37.184;2023-03-20T19:30:54;3.28;;;1.92;;
65533;SDS011;53640;55.838;37.184;2023-03-20T19:33:22;3.53;;;2.10;;
65533;SDS011;53640;55.838;37.184;2023-03-20T19:35:49;3.13;;;1.95;;
65533;SDS011;53640;55.838;37.184;2023-03-20T19:38:19;3.38;;;2.00;;